Date,TemperatureHighF,TemperatureAvgF,TemperatureLowF,DewpointHighF,DewpointAvgF,DewpointLowF,HumidityHigh,HumidityAvg,HumidityLow,PressureMaxIn,PressureMinIn,WindSpeedMaxMPH,WindSpeedAvgMPH,GustSpeedMaxMPH,PrecipitationSumIn
2013-8-1,69,59,52,58,53,50,96,83,59,27.91,27.84,23,2,23,0.01
2013-8-2,68,58,49,55,51,49,98,80,55,28.00,27.82,16,2,18,0.01
2013-8-3,64,56,46,53,50,45,97,82,63,28.19,28.00,14,2,14,0.00
2013-8-4,70,56,40,56,47,39,98,75,47,28.21,28.03,8,1,8,0.00
2013-8-5,66,59,53,60,55,46,97,89,75,28.03,27.80,6,0,6,0.08
2013-8-6,69,60,56,61,57,54,99,91,66,27.80,27.75,10,1,11,0.10
2013-8-7,66,58,49,56,50,44,97,77,53,27.98,27.76,12,2,14,0.00
2013-8-8,64,54,41,52,47,40,98,78,54,28.00,27.93,16,2,17,0.00
2013-8-9,65,54,46,54,49,45,96,84,58,28.08,27.89,16,2,16,0.02
2013-8-10,70,56,42,56,48,41,98,79,48,28.14,28.06,9,1,9,0.00
2013-8-11,70,58,46,59,53,45,98,85,58,28.07,28.00,10,0,13,0.01
2013-8-12,63,55,47,56,49,45,98,83,55,28.08,27.95,13,1,14,0.01
2013-8-13,61,53,42,49,46,41,97,81,55,28.18,28.08,9,1,10,0.00
2013-8-14,68,53,37,53,45,36,98,78,47,28.18,28.06,10,1,11,0.00
2013-8-15,75,59,42,58,50,41,98,76,44,28.09,28.04,9,1,9,0.00
2013-8-16,79,63,44,60,53,44,100,74,40,28.13,28.09,12,1,12,0.00
2013-8-17,77,67,57,60,58,54,88,73,52,28.14,28.03,18,2,18,0.00
2013-8-18,77,69,63,64,59,56,83,72,56,28.06,27.95,14,2,17,0.00
2013-8-19,83,71,64,68,63,57,92,78,56,27.95,27.88,12,2,14,0.00
2013-8-20,86,76,67,74,70,65,96,82,57,27.90,27.81,14,2,18,0.00
2013-8-21,79,71,52,70,60,48,94,71,40,28.04,27.78,21,3,21,0.03
2013-8-22,75,62,49,54,51,48,97,71,41,28.16,28.03,10,1,10,0.00
2013-8-23,76,63,47,56,52,46,97,70,45,28.18,28.07,13,1,13,0.00
2013-8-24,78,69,59,69,62,51,87,79,71,28.11,27.89,18,3,19,0.00
2013-8-25,88,78,66,77,71,64,96,81,61,27.98,27.87,14,2,15,0.03
2013-8-26,88,75,61,70,66,60,99,76,46,28.02,27.94,8,0,8,0.00
2013-8-27,88,76,64,72,67,57,98,73,53,27.99,27.90,6,0,6,0.00
2013-8-28,89,72,58,71,64,56,98,77,51,28.06,27.99,9,1,10,0.00
2013-8-29,81,68,59,69,64,58,99,89,60,28.06,27.81,15,1,18,0.85
2013-8-30,71,66,61,65,62,60,98,90,75,28.01,27.83,14,2,14,0.03
2013-8-31,80,66,60,71,62,58,98,89,71,27.95,27.73,16,2,16,0.39